createdAt,value
2018-09-03T00:02:18.039Z,2.30
2018-09-03T00:04:47.052Z,2.37
2018-09-03T00:07:16.347Z,2.67
2018-09-03T00:09:45.375Z,2.47
2018-09-03T00:12:14.360Z,3.10
2018-09-03T00:14:43.411Z,2.40
2018-09-03T00:17:12.435Z,2.83
2018-09-03T00:19:41.459Z,2.53
2018-09-03T00:22:10.439Z,3.07
2018-09-03T00:24:39.796Z,3.87
2018-09-03T00:27:08.806Z,3.23
2018-09-03T00:29:37.786Z,2.80
2018-09-03T00:32:12.705Z,4.17
2018-09-03T00:34:47.002Z,2.87
2018-09-03T00:37:21.674Z,2.97
2018-09-03T00:39:55.990Z,4.60
2018-09-03T00:42:30.330Z,3.37
2018-09-03T00:45:04.652Z,2.87
2018-09-03T00:47:33.658Z,3.83
2018-09-03T00:50:02.633Z,3.03
2018-09-03T00:52:31.610Z,3.30
2018-09-03T00:55:00.706Z,2.93
2018-09-03T00:57:29.694Z,6.70
2018-09-03T00:59:58.701Z,2.73
2018-09-03T01:02:27.686Z,3.23
2018-09-03T01:04:57.179Z,3.47
2018-09-03T01:07:26.166Z,4.50
2018-09-03T01:09:55.142Z,3.43
2018-09-03T01:12:24.154Z,4.00
2018-09-03T01:14:53.135Z,3.63
2018-09-03T01:17:22.413Z,3.50
2018-09-03T01:19:51.424Z,4.10
2018-09-03T01:22:20.393Z,3.80
2018-09-03T01:24:49.603Z,3.40
2018-09-03T01:27:18.594Z,3.40
2018-09-03T01:29:47.970Z,5.17
2018-09-03T01:32:16.940Z,3.30
2018-09-03T01:34:45.922Z,3.17
2018-09-03T01:37:15.006Z,3.17
2018-09-03T01:39:43.998Z,4.03
2018-09-03T01:42:13.323Z,5.13
2018-09-03T01:44:42.309Z,3.50
2018-09-03T01:47:11.310Z,3.17
2018-09-03T01:49:40.291Z,4.83
2018-09-03T01:52:09.369Z,3.67
2018-09-03T01:54:38.371Z,3.57
2018-09-03T01:57:07.361Z,4.07
2018-09-03T01:59:36.633Z,4.33
2018-09-03T02:02:05.640Z,2.83
2018-09-03T02:04:34.649Z,4.57
2018-09-03T02:07:03.667Z,3.67
2018-09-03T02:09:32.741Z,3.87
2018-09-03T02:12:02.097Z,3.30
2018-09-03T02:14:31.072Z,3.30
2018-09-03T02:17:00.054Z,3.30
2018-09-03T02:19:29.105Z,3.20
2018-09-03T02:21:58.094Z,3.30
2018-09-03T02:24:27.118Z,3.30
2018-09-03T02:26:56.106Z,4.43
2018-09-03T02:29:25.206Z,3.23
2018-09-03T02:31:54.198Z,3.30
2018-09-03T02:34:23.196Z,3.47
2018-09-03T02:36:52.193Z,3.57
2018-09-03T02:39:21.274Z,4.53
2018-09-03T02:41:50.591Z,3.87
2018-09-03T02:44:19.576Z,3.40
2018-09-03T02:46:48.569Z,4.60
2018-09-03T02:49:17.564Z,3.20
2018-09-03T02:51:46.543Z,3.40
2018-09-03T02:54:15.550Z,4.63
2018-09-03T02:56:44.538Z,3.00
2018-09-03T02:59:13.546Z,4.67
2018-09-03T03:01:42.772Z,4.43
2018-09-03T03:04:11.749Z,3.07
2018-09-03T03:06:40.742Z,3.30
2018-09-03T03:09:09.727Z,3.40
2018-09-03T03:11:39.532Z,3.80
2018-09-03T03:14:08.696Z,3.07
2018-09-03T03:16:37.714Z,3.30
2018-09-03T03:19:06.704Z,3.00
2018-09-03T03:21:35.930Z,3.83
2018-09-03T03:24:04.900Z,4.00
2018-09-03T03:26:33.875Z,3.17
2018-09-03T03:29:02.938Z,3.63
2018-09-03T03:31:31.989Z,3.60
2018-09-03T03:34:01.261Z,5.53
2018-09-03T03:36:30.233Z,3.67
2018-09-03T03:38:59.211Z,3.70
2018-09-03T03:41:28.337Z,3.50
2018-09-03T03:43:57.349Z,4.03
2018-09-03T03:46:26.361Z,3.47
2018-09-03T03:48:55.350Z,3.67
2018-09-03T03:51:24.622Z,4.70
2018-09-03T03:53:53.594Z,3.57
2018-09-03T03:56:22.586Z,3.57
2018-09-03T03:58:51.770Z,6.77
2018-09-03T04:01:20.754Z,3.87
2018-09-03T04:03:49.842Z,4.40
2018-09-03T04:06:18.858Z,7.80
2018-09-03T04:08:47.927Z,4.60
2018-09-03T04:11:16.926Z,4.20
2018-09-03T04:13:45.962Z,4.83
2018-09-03T04:16:14.966Z,4.17
2018-09-03T04:18:43.946Z,6.33
2018-09-03T04:21:13.201Z,4.10
2018-09-03T04:23:42.278Z,5.83
2018-09-03T04:26:11.326Z,4.10
2018-09-03T04:28:40.400Z,3.97
2018-09-03T04:31:09.382Z,4.00
2018-09-03T04:33:38.785Z,4.30
2018-09-03T04:36:07.774Z,4.30
2018-09-03T04:38:36.820Z,4.47
2018-09-03T04:41:05.770Z,4.07
2018-09-03T04:43:34.781Z,6.13
2018-09-03T04:46:03.790Z,5.83
2018-09-03T04:48:32.774Z,4.40
2018-09-03T04:51:02.097Z,4.50
2018-09-03T04:53:31.949Z,3.80
2018-09-03T04:56:00.962Z,4.37
2018-09-03T04:58:30.042Z,4.20
2018-09-03T05:00:59.057Z,3.83
2018-09-03T05:03:28.029Z,6.70
2018-09-03T05:05:57.069Z,7.20
2018-09-03T05:08:26.044Z,4.20
2018-09-03T05:10:55.053Z,4.03
2018-09-03T05:13:24.041Z,4.73
2018-09-03T05:15:53.115Z,4.07
2018-09-03T05:18:22.061Z,3.80
2018-09-03T05:20:51.038Z,3.77
2018-09-03T05:23:20.117Z,3.87
2018-09-03T05:25:49.174Z,3.67
2018-09-03T05:28:18.163Z,4.37
2018-09-03T05:30:47.193Z,4.30
2018-09-03T05:33:16.216Z,4.63
2018-09-03T05:35:45.249Z,4.20
2018-09-03T05:38:14.234Z,3.73
2018-09-03T05:40:43.225Z,3.97
2018-09-03T05:43:12.316Z,3.70
2018-09-03T05:45:41.394Z,3.93
2018-09-03T05:48:10.802Z,4.27
2018-09-03T05:50:39.829Z,4.30
2018-09-03T05:53:08.778Z,4.40
2018-09-03T05:55:37.802Z,4.70
2018-09-03T05:58:07.202Z,4.90
2018-09-03T06:00:36.302Z,5.27
2018-09-03T06:03:05.479Z,4.40
2018-09-03T06:05:34.481Z,4.87
2018-09-03T06:08:03.493Z,4.40
2018-09-03T06:10:32.539Z,5.57
2018-09-03T06:13:01.746Z,4.60
2018-09-03T06:15:30.750Z,4.03
2018-09-03T06:17:59.766Z,4.37
2018-09-03T06:20:28.773Z,4.53
2018-09-03T06:22:57.754Z,4.20
2018-09-03T06:25:26.850Z,6.00
2018-09-03T06:27:55.882Z,4.30
2018-09-03T06:30:24.881Z,4.57
2018-09-03T06:32:53.959Z,4.40
2018-09-03T06:35:22.996Z,4.70
2018-09-03T06:37:52.056Z,5.70
2018-09-03T06:40:21.044Z,4.60
2018-09-03T06:42:50.106Z,5.27
2018-09-03T06:45:19.273Z,5.03
2018-09-03T06:47:48.269Z,5.17
2018-09-03T06:50:17.353Z,6.47
2018-09-03T06:52:46.566Z,5.17
2018-09-03T06:55:15.557Z,5.53
2018-09-03T06:57:44.561Z,5.20
2018-09-03T07:00:13.563Z,5.43
2018-09-03T07:02:43.046Z,5.10
2018-09-03T07:05:15.556Z,5.50
2018-09-03T07:07:44.629Z,5.87
2018-09-03T07:10:13.756Z,5.63
2018-09-03T07:12:42.867Z,5.87
2018-09-03T07:15:11.954Z,6.10
2018-09-03T07:17:41.610Z,5.80
2018-09-03T07:20:10.597Z,5.87
2018-09-03T07:22:39.609Z,5.80
2018-09-03T07:25:08.593Z,5.27
2018-09-03T07:27:37.825Z,5.70
2018-09-03T07:30:06.927Z,8.07
2018-09-03T07:32:35.913Z,5.60
2018-09-03T07:35:05.135Z,5.43
2018-09-03T07:37:34.414Z,6.43
2018-09-03T07:40:03.414Z,6.37
2018-09-03T07:42:33.102Z,5.60
2018-09-03T07:45:02.082Z,6.20
2018-09-03T07:47:31.149Z,7.07
2018-09-03T07:50:00.174Z,6.57
2018-09-03T07:52:29.165Z,6.47
2018-09-03T07:54:58.179Z,9.13
2018-09-03T07:57:27.453Z,9.70
2018-09-03T07:59:56.533Z,8.03
2018-09-03T08:02:25.535Z,6.57
2018-09-03T08:04:54.678Z,7.83
2018-09-03T08:07:23.756Z,8.03
2018-09-03T08:09:52.865Z,7.50
2018-09-03T08:12:21.954Z,7.10
2018-09-03T08:14:50.939Z,11.30
2018-09-03T08:17:19.954Z,7.80
2018-09-03T08:19:48.970Z,11.53
2018-09-03T08:22:18.221Z,7.57
2018-09-03T08:24:47.196Z,10.20
2018-09-03T08:27:16.174Z,9.03
2018-09-03T08:29:45.208Z,9.37
2018-09-03T08:32:14.190Z,8.73
2018-09-03T08:34:43.246Z,9.97
2018-09-03T08:37:12.233Z,9.70
2018-09-03T08:39:41.213Z,9.40
2018-09-03T08:42:10.275Z,9.83
2018-09-03T08:44:39.393Z,10.07
2018-09-03T08:47:08.491Z,9.53
2018-09-03T08:49:37.466Z,9.43
2018-09-03T08:52:06.792Z,10.27
2018-09-03T08:54:35.842Z,10.20
2018-09-03T08:57:04.854Z,11.70
2018-09-03T08:59:34.184Z,12.77
2018-09-03T09:02:03.182Z,10.73
2018-09-03T09:04:32.449Z,10.40
2018-09-03T09:07:01.450Z,9.58
2018-09-03T09:09:30.472Z,10.73
2018-09-03T09:11:59.556Z,10.93
2018-09-03T09:14:29.414Z,13.57
2018-09-03T09:16:58.731Z,9.10
2018-09-03T09:19:27.837Z,9.05
2018-09-03T09:21:56.814Z,9.40
2018-09-03T09:24:25.872Z,8.90
2018-09-03T09:26:54.833Z,8.88
2018-09-03T09:29:23.846Z,9.33
2018-09-03T09:31:52.819Z,9.15
2018-09-03T09:34:21.873Z,9.20
2018-09-03T09:36:50.946Z,10.48
2018-09-03T09:39:19.829Z,9.85
2018-09-03T09:41:48.834Z,12.33
2018-09-03T09:44:17.872Z,10.05
2018-09-03T09:46:46.885Z,9.00
2018-09-03T09:49:15.873Z,9.60
2018-09-03T09:51:45.294Z,10.85
2018-09-03T09:54:14.302Z,11.10
2018-09-03T09:56:43.300Z,9.43
2018-09-03T09:59:12.310Z,9.45
2018-09-03T10:01:41.314Z,10.68
2018-09-03T10:04:10.342Z,11.90
2018-09-03T10:06:39.300Z,15.30
2018-09-03T10:09:08.694Z,9.63
2018-09-03T10:11:37.687Z,11.28
2018-09-03T10:14:07.006Z,12.63
2018-09-03T10:16:35.998Z,14.80
2018-09-03T10:19:05.105Z,11.53
2018-09-03T10:21:34.119Z,14.10
2018-09-03T10:24:03.129Z,15.78
2018-09-03T10:26:32.129Z,10.23
2018-09-03T10:29:01.147Z,11.10
2018-09-03T10:31:30.301Z,10.35
2018-09-03T10:33:59.306Z,12.07
2018-09-03T10:36:28.305Z,12.15
2018-09-03T10:38:57.302Z,11.70
2018-09-03T10:41:26.283Z,9.65
2018-09-03T10:43:55.257Z,11.55
2018-09-03T10:46:24.559Z,11.08
2018-09-03T10:48:53.541Z,11.22
2018-09-03T10:51:22.529Z,11.05
2018-09-03T10:53:51.554Z,10.10
2018-09-03T10:56:20.529Z,9.40
2018-09-03T10:58:49.528Z,11.10
2018-09-03T11:01:18.772Z,9.65
2018-09-03T11:03:48.198Z,11.93
2018-09-03T11:06:17.383Z,11.05
2018-09-03T11:08:46.527Z,10.80
2018-09-03T11:11:15.541Z,9.78
2018-09-03T11:13:44.554Z,11.12
2018-09-03T11:16:13.593Z,11.45
2018-09-03T11:18:42.618Z,9.95
2018-09-03T11:21:11.696Z,10.68
2018-09-03T11:23:40.838Z,10.95
2018-09-03T11:26:09.865Z,11.78
2018-09-03T11:28:39.000Z,11.83
2018-09-03T11:31:08.170Z,11.05
2018-09-03T11:33:37.203Z,10.63
2018-09-03T11:36:06.198Z,12.20
2018-09-03T11:38:35.396Z,13.25
2018-09-03T11:41:04.530Z,11.48
2018-09-03T11:43:33.740Z,11.57
2018-09-03T11:46:03.006Z,11.08
2018-09-03T11:48:32.046Z,11.20
2018-09-03T11:51:01.099Z,11.00
2018-09-03T11:53:30.216Z,11.50
2018-09-03T11:55:59.217Z,11.48
2018-09-03T11:58:28.219Z,11.05
2018-09-03T12:00:58.169Z,11.53
2018-09-03T12:03:27.142Z,11.03
2018-09-03T12:05:56.227Z,11.88
2018-09-03T12:08:25.278Z,12.80
2018-09-03T12:10:54.301Z,11.88
2018-09-03T12:13:23.329Z,11.50
2018-09-03T12:16:24.043Z,11.83
2018-09-03T12:18:55.644Z,11.40
2018-09-03T12:21:24.762Z,11.60
2018-09-03T12:23:53.971Z,12.28
2018-09-03T12:26:23.094Z,11.38
2018-09-03T12:28:52.389Z,11.68
2018-09-03T12:31:21.609Z,11.70
2018-09-03T12:33:50.716Z,10.95
2018-09-03T12:36:19.871Z,13.40
2018-09-03T12:38:48.885Z,12.73
2018-09-03T12:41:18.082Z,11.15
2018-09-03T12:43:47.182Z,11.28
2018-09-03T12:46:17.463Z,11.05
2018-09-03T12:48:46.605Z,12.35
2018-09-03T12:51:15.682Z,11.57
2018-09-03T12:53:44.709Z,10.88
2018-09-03T12:56:13.696Z,14.10
2018-09-03T12:58:42.739Z,10.95
2018-09-03T13:01:10.755Z,11.25
2018-09-03T13:03:39.505Z,12.37
2018-09-03T13:06:08.616Z,13.05
2018-09-03T13:08:37.605Z,11.12
2018-09-03T13:11:06.601Z,10.53
2018-09-03T13:13:35.606Z,10.88
2018-09-03T13:16:04.602Z,11.63
2018-09-03T13:18:33.611Z,12.37
2018-09-03T13:21:02.619Z,13.22
2018-09-03T13:23:31.654Z,12.18
2018-09-03T13:26:00.645Z,13.45
2018-09-03T13:28:29.633Z,12.43
2018-09-03T13:30:58.726Z,10.95
2018-09-03T13:33:27.765Z,11.00
2018-09-03T13:35:56.747Z,12.03
2018-09-03T13:38:25.759Z,11.43
2018-09-03T13:40:54.751Z,11.75
2018-09-03T13:43:23.741Z,10.58
2018-09-03T13:48:14.326Z,12.45
2018-09-03T13:50:43.274Z,13.22
2018-09-03T13:53:12.273Z,10.05
2018-09-03T13:55:41.301Z,10.80
2018-09-03T13:58:10.279Z,11.20
2018-09-03T14:00:39.281Z,14.85
2018-09-03T14:03:08.269Z,12.28
2018-09-03T14:05:37.292Z,10.78
2018-09-03T14:08:06.291Z,12.53
2018-09-03T14:10:35.269Z,12.53
2018-09-03T14:13:04.267Z,11.08
2018-09-03T14:15:33.278Z,11.08
2018-09-03T14:18:08.939Z,11.45
2018-09-03T14:20:37.915Z,10.28
2018-09-03T14:23:06.922Z,11.55
2018-09-03T14:25:36.006Z,10.65
2018-09-03T14:28:05.162Z,12.43
2018-09-03T14:30:34.157Z,12.00
2018-09-03T14:33:03.183Z,10.03
2018-09-03T14:35:32.206Z,12.37
2018-09-03T14:38:02.232Z,11.25
2018-09-03T14:40:31.222Z,11.33
2018-09-03T14:43:00.559Z,11.30
2018-09-03T14:45:29.558Z,11.40
2018-09-03T14:47:58.591Z,12.47
2018-09-03T14:50:27.846Z,11.22
2018-09-03T14:52:57.034Z,10.60
2018-09-03T14:55:26.153Z,15.25
2018-09-03T14:57:55.375Z,16.17
2018-09-03T15:00:24.374Z,13.43
2018-09-03T15:02:53.397Z,15.32
2018-09-03T15:05:22.382Z,11.85
2018-09-03T15:07:51.779Z,13.70
2018-09-03T15:10:20.909Z,13.00
2018-09-03T15:12:49.897Z,14.00
2018-09-03T15:15:19.013Z,15.48
2018-09-03T15:17:47.985Z,16.57
2018-09-03T15:20:16.970Z,12.73
2018-09-03T15:22:45.997Z,12.53
2018-09-03T15:25:15.019Z,12.45
2018-09-03T15:27:44.000Z,13.55
2018-09-03T15:30:13.021Z,13.62
2018-09-03T15:32:42.062Z,12.45
2018-09-03T15:35:11.065Z,15.43
2018-09-03T15:37:40.159Z,12.75
2018-09-03T15:40:09.142Z,15.68
2018-09-03T15:42:38.160Z,14.93
2018-09-03T15:45:07.138Z,15.53
2018-09-03T15:47:36.394Z,14.65
2018-09-03T15:50:05.841Z,12.07
2018-09-03T15:52:34.870Z,12.80
2018-09-03T15:55:03.897Z,11.45
2018-09-03T15:57:32.882Z,12.43
2018-09-03T16:00:01.946Z,11.70
2018-09-03T16:02:30.930Z,11.03
2018-09-03T16:04:59.974Z,14.05
2018-09-03T16:07:28.977Z,14.68
2018-09-03T16:09:58.041Z,13.30
2018-09-03T16:12:27.261Z,14.13
2018-09-03T16:14:56.246Z,12.40
2018-09-03T16:17:25.241Z,14.28
2018-09-03T16:19:54.461Z,13.20
2018-09-03T16:22:23.445Z,13.53
2018-09-03T16:24:52.499Z,12.55
2018-09-03T16:27:21.541Z,15.43
2018-09-03T16:29:50.521Z,11.70
2018-09-03T16:32:19.632Z,14.07
2018-09-03T16:34:48.614Z,10.85
2018-09-03T16:37:17.983Z,11.45
2018-09-03T16:39:46.989Z,11.43
2018-09-03T16:42:16.110Z,13.28
2018-09-03T16:44:45.442Z,14.98
2018-09-03T16:47:14.420Z,10.15
2018-09-03T16:49:43.440Z,12.88
2018-09-03T16:52:12.467Z,12.10
2018-09-03T16:54:41.454Z,14.90
2018-09-03T16:57:10.469Z,10.85
2018-09-03T16:59:39.634Z,18.07
2018-09-03T17:02:08.650Z,15.08
2018-09-03T17:04:37.717Z,13.00
2018-09-03T17:07:06.894Z,13.68
2018-09-03T17:09:36.329Z,11.25
2018-09-03T17:12:05.314Z,11.10
2018-09-03T17:14:34.338Z,11.12
2018-09-03T17:17:03.309Z,11.83
2018-09-03T17:19:32.321Z,11.85
2018-09-03T17:22:01.330Z,13.88
2018-09-03T17:24:30.297Z,11.05
2018-09-03T17:26:59.351Z,11.53
2018-09-03T17:29:35.074Z,12.68
2018-09-03T17:32:04.174Z,11.22
2018-09-03T17:34:33.193Z,10.68
2018-09-03T17:37:02.210Z,10.82
2018-09-03T17:39:31.225Z,15.70
2018-09-03T17:42:06.833Z,13.65
2018-09-03T17:44:35.855Z,12.93
2018-09-03T17:47:05.116Z,13.88
2018-09-03T17:49:34.361Z,12.40
2018-09-03T17:52:03.650Z,28.00
2018-09-03T17:54:32.825Z,24.63
2018-09-03T17:57:01.881Z,20.15
2018-09-03T17:59:30.881Z,12.28
2018-09-03T18:01:59.878Z,12.28
2018-09-03T18:04:29.001Z,10.65
2018-09-03T18:06:57.995Z,11.53
2018-09-03T18:09:27.073Z,12.43
2018-09-03T18:11:56.402Z,13.18
2018-09-03T18:14:25.482Z,12.68
2018-09-03T18:16:54.799Z,12.90
2018-09-03T18:19:23.774Z,12.20
2018-09-03T18:21:52.951Z,11.60
2018-09-03T18:24:21.789Z,11.13
2018-09-03T18:26:50.842Z,10.98
2018-09-03T18:29:19.843Z,8.60
2018-09-03T18:31:48.847Z,10.67
2018-09-03T18:34:17.930Z,12.50
2018-09-03T18:36:46.919Z,22.42
2018-09-03T18:39:15.919Z,16.60
2018-09-03T18:41:44.950Z,19.47
2018-09-03T18:44:13.906Z,16.20
2018-09-03T18:46:43.012Z,11.93
2018-09-03T18:49:11.997Z,11.37
2018-09-03T18:51:41.045Z,10.00
2018-09-03T18:54:10.124Z,10.40
2018-09-03T18:56:39.076Z,11.13
2018-09-03T18:59:08.593Z,17.70
2018-09-03T19:01:37.658Z,14.03
2018-09-03T19:04:06.652Z,11.13
2018-09-03T19:06:35.632Z,10.23
2018-09-03T19:09:05.934Z,12.47
2018-09-03T19:11:34.953Z,9.83
2018-09-03T19:14:03.937Z,9.40
2018-09-03T19:16:32.957Z,10.07
2018-09-03T19:19:02.173Z,8.63
2018-09-03T19:21:31.273Z,11.03
2018-09-03T19:24:00.262Z,11.77
2018-09-03T19:26:29.348Z,10.20
2018-09-03T19:28:58.436Z,10.20
2018-09-03T19:31:27.463Z,11.57
2018-09-03T19:33:56.522Z,13.80
2018-09-03T19:36:25.598Z,13.03
2018-09-03T19:38:54.611Z,10.20
2018-09-03T19:41:23.941Z,9.60
2018-09-03T19:43:52.925Z,13.20
2018-09-03T19:46:21.913Z,11.30
2018-09-03T19:48:51.422Z,9.90
2018-09-03T19:51:20.641Z,9.27
2018-09-03T19:53:49.650Z,10.10
2018-09-03T19:56:18.801Z,13.20
2018-09-03T19:58:47.882Z,12.40
2018-09-03T20:01:16.891Z,15.07
2018-09-03T20:03:45.882Z,10.63
2018-09-03T20:06:15.306Z,16.53
2018-09-03T20:08:44.224Z,12.67
2018-09-03T20:11:13.319Z,11.23
2018-09-03T20:13:42.337Z,11.63
2018-09-03T20:16:11.370Z,10.43
2018-09-03T20:18:40.362Z,11.10
2018-09-03T20:21:09.343Z,12.20
2018-09-03T20:23:38.772Z,11.13
2018-09-03T20:26:07.608Z,11.33
2018-09-03T20:28:36.648Z,11.47
2018-09-03T20:31:05.875Z,11.00
2018-09-03T20:33:34.854Z,12.47
2018-09-03T20:36:04.142Z,11.90
2018-09-03T20:38:33.138Z,10.90
2018-09-03T20:41:03.395Z,12.90
2018-09-03T20:43:32.392Z,12.03
2018-09-03T20:46:01.482Z,11.40
2018-09-03T20:48:36.702Z,12.50
2018-09-03T20:51:05.878Z,12.30
2018-09-03T20:53:35.183Z,14.43
2018-09-03T20:56:04.250Z,12.30
2018-09-03T20:58:33.509Z,12.37
2018-09-03T21:01:02.642Z,13.93
2018-09-03T21:03:31.655Z,13.67
2018-09-03T21:06:00.806Z,14.13
2018-09-03T21:08:29.889Z,14.30
2018-09-03T21:10:58.814Z,14.23
2018-09-03T21:13:27.826Z,11.57
2018-09-03T21:15:56.815Z,12.03
2018-09-03T21:18:26.166Z,12.90
2018-09-03T21:20:55.157Z,12.93
2018-09-03T21:23:24.329Z,11.90
2018-09-03T21:25:53.306Z,12.97
2018-09-03T21:28:22.303Z,11.70
2018-09-03T21:30:51.338Z,14.77
2018-09-03T21:33:20.373Z,15.83
2018-09-03T21:35:49.375Z,12.63
2018-09-03T21:38:18.389Z,13.93
2018-09-03T21:40:47.381Z,16.43
2018-09-03T21:43:16.421Z,18.90
2018-09-03T21:45:45.430Z,17.53
2018-09-03T21:48:14.426Z,14.30
2018-09-03T21:50:43.444Z,15.93
2018-09-03T21:53:12.430Z,14.63
2018-09-03T21:55:41.445Z,14.10
2018-09-03T21:58:10.554Z,15.83
2018-09-03T22:00:39.594Z,20.00
2018-09-03T22:03:08.581Z,14.40
2018-09-03T22:05:37.570Z,15.10
2018-09-03T22:08:06.626Z,13.70
2018-09-03T22:10:35.714Z,14.47
2018-09-03T22:13:04.853Z,16.20
2018-09-03T22:15:33.929Z,13.50
2018-09-03T22:18:03.265Z,12.80
2018-09-03T22:20:32.269Z,12.00
2018-09-03T22:23:01.270Z,16.30
2018-09-03T22:25:30.315Z,15.97
2018-09-03T22:27:59.406Z,16.13
2018-09-03T22:30:28.530Z,18.20
2018-09-03T22:32:57.522Z,16.07
2018-09-03T22:35:26.567Z,15.10
2018-09-03T22:37:55.605Z,14.57
2018-09-03T22:40:24.757Z,17.20
2018-09-03T22:42:53.798Z,13.70
2018-09-03T22:45:22.797Z,14.07
2018-09-03T22:47:52.173Z,14.70
2018-09-03T22:50:21.184Z,16.23
2018-09-03T22:52:50.207Z,13.80
2018-09-03T22:55:19.207Z,12.93
2018-09-03T22:57:48.210Z,13.73
2018-09-03T23:00:17.200Z,13.93
2018-09-03T23:02:46.943Z,16.57
2018-09-03T23:05:15.940Z,15.50
2018-09-03T23:07:45.241Z,14.93
2018-09-03T23:10:14.233Z,14.70
2018-09-03T23:12:43.266Z,18.50
2018-09-03T23:15:12.321Z,13.40
2018-09-03T23:17:41.329Z,13.87
2018-09-03T23:20:10.401Z,14.30
2018-09-03T23:22:39.406Z,13.97
2018-09-03T23:25:08.795Z,14.57
2018-09-03T23:27:37.781Z,14.97
2018-09-03T23:30:06.778Z,13.80
2018-09-03T23:32:35.809Z,13.90
2018-09-03T23:35:04.914Z,14.60
2018-09-03T23:37:33.921Z,18.40
2018-09-03T23:40:03.129Z,15.30
2018-09-03T23:42:32.122Z,16.30
2018-09-03T23:45:01.131Z,16.50
2018-09-03T23:47:30.149Z,16.30
2018-09-03T23:49:59.157Z,14.77
2018-09-03T23:52:28.147Z,14.57
2018-09-03T23:54:57.267Z,15.77
2018-09-03T23:57:26.254Z,19.33
2018-09-03T23:59:55.240Z,15.27
